createdAt,value
2023-05-16T00:01:24.000Z,7.9
2023-05-16T00:04:08.000Z,7.5
2023-05-16T00:06:53.000Z,6.8
2023-05-16T00:09:38.000Z,7.4
2023-05-16T00:12:22.000Z,7.1
2023-05-16T00:15:07.000Z,11.2
2023-05-16T00:17:51.000Z,6.8
2023-05-16T00:20:36.000Z,7.1
2023-05-16T00:23:21.000Z,7.3
2023-05-16T00:24:48.000Z,7.8
2023-05-16T00:26:06.000Z,8.4
2023-05-16T00:28:51.000Z,10.6
2023-05-16T00:31:35.000Z,8.2
2023-05-16T00:36:48.000Z,9.2
2023-05-16T00:39:37.000Z,8.3
2023-05-16T00:42:18.000Z,9.9
2023-05-16T00:45:02.000Z,7.8
2023-05-16T00:47:47.000Z,7.2
2023-05-16T00:50:32.000Z,8.2
2023-05-16T00:52:15.000Z,7.3
2023-05-16T00:53:33.000Z,8.2
2023-05-16T00:56:17.000Z,8.2
2023-05-16T00:59:02.000Z,8.8
2023-05-16T01:01:50.000Z,8.1
2023-05-16T01:04:31.000Z,9
2023-05-16T01:07:20.000Z,10
2023-05-16T01:12:29.000Z,10.1
2023-05-16T01:15:13.000Z,6.8
2023-05-16T01:17:58.000Z,7.6
2023-05-16T01:19:41.000Z,7.4
2023-05-16T01:20:59.000Z,8.2
2023-05-16T01:23:44.000Z,7
2023-05-16T01:26:28.000Z,7.7
2023-05-16T01:29:13.000Z,6.4
2023-05-16T01:31:57.000Z,7.7
2023-05-16T01:34:42.000Z,9.7
2023-05-16T01:37:27.000Z,8.4
2023-05-16T01:40:15.000Z,10.2
2023-05-16T01:42:56.000Z,8.7
2023-05-16T01:47:08.000Z,11.5
2023-05-16T01:48:25.000Z,10.5
2023-05-16T01:51:10.000Z,10.9
2023-05-16T01:53:55.000Z,10.8
2023-05-16T01:56:39.000Z,8.9
2023-05-16T01:59:24.000Z,10.7
2023-05-16T02:02:08.000Z,10.2
2023-05-16T02:04:57.000Z,9.6
2023-05-16T02:07:38.000Z,10.2
2023-05-16T02:10:22.000Z,10
2023-05-16T02:13:11.000Z,10.6
2023-05-16T02:14:34.000Z,10.6
2023-05-16T02:15:52.000Z,10.3
2023-05-16T02:21:05.000Z,11
2023-05-16T02:23:49.000Z,9.4
2023-05-16T02:26:34.000Z,10.8
2023-05-16T02:29:18.000Z,10.5
2023-05-16T02:32:03.000Z,11.9
2023-05-16T02:34:48.000Z,12
2023-05-16T02:37:36.000Z,13.1
2023-05-16T02:40:21.000Z,13.1
2023-05-16T02:42:00.000Z,11.8
2023-05-16T02:43:18.000Z,11.6
2023-05-16T02:46:03.000Z,12.4
2023-05-16T02:48:47.000Z,14.5
2023-05-16T02:51:32.000Z,12.4
2023-05-16T02:56:45.000Z,12.9
2023-05-16T02:59:29.000Z,13.9
2023-05-16T03:02:14.000Z,14
2023-05-16T03:04:59.000Z,15
2023-05-16T03:07:43.000Z,16.1
2023-05-16T03:09:27.000Z,19.4
2023-05-16T03:10:44.000Z,15.1
2023-05-16T03:13:29.000Z,14.9
2023-05-16T03:16:18.000Z,14.8
2023-05-16T03:18:58.000Z,15.7
2023-05-16T03:21:43.000Z,15.4
2023-05-16T03:24:31.000Z,15.2
2023-05-16T03:27:12.000Z,15.9
2023-05-16T03:32:25.000Z,16.9
2023-05-16T03:35:10.000Z,15.9
2023-05-16T03:36:53.000Z,17
2023-05-16T03:38:11.000Z,16.1
2023-05-16T03:40:55.000Z,15.7
2023-05-16T03:43:44.000Z,16.2
2023-05-16T03:46:25.000Z,16.7
2023-05-16T03:49:09.000Z,16.8
2023-05-16T03:51:54.000Z,17.5
2023-05-16T03:54:38.000Z,18.9
2023-05-16T03:57:23.000Z,21.8
2023-05-16T04:00:12.000Z,28.4
2023-05-16T04:02:52.000Z,23.9
2023-05-16T04:05:37.000Z,25.1
2023-05-16T04:08:22.000Z,21
2023-05-16T04:11:06.000Z,19.8
2023-05-16T04:13:51.000Z,20.1
2023-05-16T04:16:36.000Z,23.3
2023-05-16T04:19:20.000Z,23.9
2023-05-16T04:22:05.000Z,27.7
2023-05-16T04:24:53.000Z,25.5
2023-05-16T04:27:34.000Z,25.1
2023-05-16T04:29:02.000Z,28
2023-05-16T04:30:24.000Z,27
2023-05-16T04:33:04.000Z,24.7
2023-05-16T04:35:49.000Z,25.3
2023-05-16T04:41:02.000Z,25.6
2023-05-16T04:43:46.000Z,29.9
2023-05-16T04:46:31.000Z,35.4
2023-05-16T04:49:16.000Z,31.2
2023-05-16T04:52:00.000Z,31.9
2023-05-16T04:54:45.000Z,34.5
2023-05-16T04:56:28.000Z,34.6
2023-05-16T04:57:46.000Z,33.4
2023-05-16T05:00:31.000Z,32.4
2023-05-16T05:03:19.000Z,36.9
2023-05-16T05:06:00.000Z,34.8
2023-05-16T05:08:44.000Z,35
2023-05-16T05:11:33.000Z,35
2023-05-16T05:16:42.000Z,36.5
2023-05-16T05:19:31.000Z,41.5
2023-05-16T05:22:15.000Z,40.5
2023-05-16T05:23:55.000Z,43.8
2023-05-16T05:25:12.000Z,44.8
2023-05-16T05:28:01.000Z,41.2
2023-05-16T05:30:42.000Z,44.9
2023-05-16T05:33:26.000Z,48.4
2023-05-16T05:36:15.000Z,49.8
2023-05-16T05:38:55.000Z,54.3
2023-05-16T05:41:40.000Z,50.4
2023-05-16T05:44:29.000Z,53.6
2023-05-16T05:47:09.000Z,55.5
2023-05-16T05:51:21.000Z,68.4
2023-05-16T05:52:39.000Z,60.1
2023-05-16T05:55:27.000Z,60
2023-05-16T05:58:08.000Z,57.8
2023-05-16T06:00:53.000Z,60.2
2023-05-16T06:03:41.000Z,62.7
2023-05-16T06:06:22.000Z,58.2
2023-05-16T06:09:06.000Z,65.9
2023-05-16T06:11:51.000Z,70.7
2023-05-16T06:14:36.000Z,72.9
2023-05-16T06:17:24.000Z,72.7
2023-05-16T06:18:47.000Z,57.8
2023-05-16T06:20:05.000Z,52.1
2023-05-16T06:25:18.000Z,70.5
2023-05-16T06:28:07.000Z,55.5
2023-05-16T06:30:47.000Z,57.5
2023-05-16T06:33:36.000Z,59.6
2023-05-16T06:36:20.000Z,60.6
2023-05-16T06:39:01.000Z,70.5
2023-05-16T06:41:50.000Z,49.7
2023-05-16T06:44:34.000Z,48.5
2023-05-16T06:46:18.000Z,56.4
2023-05-16T06:47:31.000Z,45.5
2023-05-16T06:50:20.000Z,50.9
2023-05-16T06:53:05.000Z,44.9
2023-05-16T06:55:45.000Z,46.6
2023-05-16T07:00:58.000Z,54.1
2023-05-16T07:03:43.000Z,41.7
2023-05-16T07:06:31.000Z,42.4
2023-05-16T07:09:16.000Z,46.2
2023-05-16T07:11:57.000Z,42.1
2023-05-16T07:13:40.000Z,38.2
2023-05-16T07:15:02.000Z,55.3
2023-05-16T07:17:42.000Z,39.8
2023-05-16T07:20:27.000Z,38.4
2023-05-16T07:23:12.000Z,33.8
2023-05-16T07:25:56.000Z,34.8
2023-05-16T07:28:41.000Z,35
2023-05-16T07:31:26.000Z,34.7
2023-05-16T07:36:38.000Z,34.2
2023-05-16T07:39:23.000Z,30.9
2023-05-16T07:41:06.000Z,31.6
2023-05-16T07:42:24.000Z,34.4
2023-05-16T07:45:09.000Z,35.5
2023-05-16T07:47:53.000Z,35.6
2023-05-16T07:50:38.000Z,35.1
2023-05-16T07:53:23.000Z,42.2
2023-05-16T07:56:07.000Z,36.6
2023-05-16T07:58:52.000Z,44.6
2023-05-16T08:01:37.000Z,42.7
2023-05-16T08:04:25.000Z,37.3
2023-05-16T08:07:10.000Z,36.6
2023-05-16T08:09:50.000Z,37.9
2023-05-16T08:12:35.000Z,35.6
2023-05-16T08:15:24.000Z,37.6
2023-05-16T08:18:04.000Z,38.8
2023-05-16T08:20:53.000Z,36.4
2023-05-16T08:23:38.000Z,34.4
2023-05-16T08:26:18.000Z,32.3
2023-05-16T08:29:07.000Z,32.8
2023-05-16T08:31:51.000Z,28.1
2023-05-16T08:33:19.000Z,24
2023-05-16T08:34:33.000Z,22.5
2023-05-16T08:37:22.000Z,23.5
2023-05-16T08:40:02.000Z,23.3
2023-05-16T08:45:19.000Z,24.2
2023-05-16T08:48:04.000Z,23.7
2023-05-16T08:50:44.000Z,33.4
2023-05-16T08:53:29.000Z,33.1
2023-05-16T08:56:14.000Z,29.6
2023-05-16T08:58:58.000Z,30.2
2023-05-16T09:00:42.000Z,33.2
2023-05-16T09:02:03.000Z,30.6
2023-05-16T09:04:48.000Z,35.5
2023-05-16T09:07:29.000Z,36.7
2023-05-16T09:10:17.000Z,39.7
2023-05-16T09:13:02.000Z,34.9
2023-05-16T09:15:43.000Z,37.3
2023-05-16T09:20:55.000Z,33.2
2023-05-16T09:23:40.000Z,31.1
2023-05-16T09:26:25.000Z,29
2023-05-16T09:28:08.000Z,30.4
2023-05-16T09:29:30.000Z,30.1
2023-05-16T09:32:10.000Z,26.1
2023-05-16T09:34:59.000Z,23
2023-05-16T09:37:40.000Z,23.5
2023-05-16T09:40:24.000Z,21.9
2023-05-16T09:43:13.000Z,22.3
2023-05-16T09:45:53.000Z,24.3
2023-05-16T09:48:38.000Z,18.4
2023-05-16T09:51:27.000Z,17.6
2023-05-16T09:55:34.000Z,13.7
2023-05-16T09:56:52.000Z,15.7
2023-05-16T09:59:41.000Z,12.8
2023-05-16T10:02:25.000Z,14.1
2023-05-16T10:05:10.000Z,15.7
2023-05-16T10:07:55.000Z,12.5
2023-05-16T10:10:35.000Z,10.5
2023-05-16T10:13:20.000Z,9.4
2023-05-16T10:16:08.000Z,11.1
2023-05-16T10:18:53.000Z,12.4
2023-05-16T10:21:34.000Z,13.1
2023-05-16T10:23:05.000Z,11.8
2023-05-16T10:24:18.000Z,13.1
2023-05-16T10:29:31.000Z,15
2023-05-16T10:32:20.000Z,11
2023-05-16T10:35:05.000Z,11.1
2023-05-16T10:37:49.000Z,11.5
2023-05-16T10:40:34.000Z,10.7
2023-05-16T10:43:18.000Z,11.5
2023-05-16T10:45:59.000Z,10.9
2023-05-16T10:48:44.000Z,11.7
2023-05-16T10:50:27.000Z,21
2023-05-16T10:51:49.000Z,12.4
2023-05-16T10:54:29.000Z,12.9
2023-05-16T10:57:14.000Z,15.2
2023-05-16T10:59:59.000Z,15
2023-05-16T11:05:12.000Z,15.6
2023-05-16T11:08:00.000Z,15.7
2023-05-16T11:10:41.000Z,18
2023-05-16T11:13:25.000Z,28.5
2023-05-16T11:16:14.000Z,17.2
2023-05-16T11:17:57.000Z,24.3
2023-05-16T11:19:11.000Z,20.2
2023-05-16T11:22:00.000Z,21.1
2023-05-16T11:24:40.000Z,20.5
2023-05-16T11:27:25.000Z,21.9
2023-05-16T11:30:14.000Z,21.6
2023-05-16T11:32:54.000Z,22.2
2023-05-16T11:35:39.000Z,21.7
2023-05-16T11:40:56.000Z,23.6
2023-05-16T11:43:36.000Z,21.9
2023-05-16T11:45:20.000Z,22
2023-05-16T11:46:41.000Z,19.5
2023-05-16T11:49:22.000Z,21
2023-05-16T11:52:07.000Z,21.3
2023-05-16T11:54:51.000Z,20.5
2023-05-16T11:57:36.000Z,20.2
2023-05-16T12:00:21.000Z,19.7
2023-05-16T12:03:09.000Z,19.7
2023-05-16T12:05:50.000Z,20.5
2023-05-16T12:08:35.000Z,20.4
2023-05-16T12:11:23.000Z,19.4
2023-05-16T12:14:04.000Z,18.1
2023-05-16T12:16:48.000Z,21.1
2023-05-16T12:19:37.000Z,19.7
2023-05-16T12:22:18.000Z,19
2023-05-16T12:25:02.000Z,21.8
2023-05-16T12:27:51.000Z,20.3
2023-05-16T12:30:32.000Z,17.2
2023-05-16T12:33:16.000Z,13.9
2023-05-16T12:36:05.000Z,12.9
2023-05-16T12:37:29.000Z,12.7
2023-05-16T12:38:46.000Z,13.2
2023-05-16T12:41:31.000Z,15
2023-05-16T12:44:16.000Z,14.3
2023-05-16T12:49:29.000Z,14.3
2023-05-16T12:52:17.000Z,16.4
2023-05-16T12:54:58.000Z,13.5
2023-05-16T12:57:46.000Z,14.2
2023-05-16T13:00:31.000Z,14.9
2023-05-16T13:03:12.000Z,17.7
2023-05-16T13:04:59.000Z,16.3
2023-05-16T13:06:13.000Z,19.1
2023-05-16T13:09:01.000Z,16.7
2023-05-16T13:11:42.000Z,15.7
2023-05-16T13:14:27.000Z,16.4
2023-05-16T13:17:15.000Z,13.7
2023-05-16T13:20:00.000Z,14.5
2023-05-16T13:25:13.000Z,15.2
2023-05-16T13:27:57.000Z,16
2023-05-16T13:30:38.000Z,13.3
2023-05-16T13:32:21.000Z,12.8
2023-05-16T13:33:43.000Z,11.8
2023-05-16T13:36:24.000Z,12.8
2023-05-16T13:39:12.000Z,14.9
2023-05-16T13:41:57.000Z,13.7
2023-05-16T13:44:38.000Z,11.4
2023-05-16T13:47:26.000Z,13.1
2023-05-16T13:50:07.000Z,13.2
2023-05-16T13:52:52.000Z,13.8
2023-05-16T13:55:36.000Z,12.8
2023-05-16T13:59:52.000Z,10.3
2023-05-16T14:01:09.000Z,13
2023-05-16T14:03:50.000Z,10.3
2023-05-16T14:06:39.000Z,11.4
2023-05-16T14:09:23.000Z,10.7
2023-05-16T14:12:04.000Z,12.3
2023-05-16T14:14:49.000Z,11.9
2023-05-16T14:17:37.000Z,9.8
2023-05-16T14:20:18.000Z,10.1
2023-05-16T14:23:02.000Z,10.1
2023-05-16T14:25:47.000Z,10.9
2023-05-16T14:27:14.000Z,10.2
2023-05-16T14:28:32.000Z,12.8
2023-05-16T14:33:49.000Z,11.3
2023-05-16T14:36:29.000Z,10
2023-05-16T14:39:18.000Z,12.6
2023-05-16T14:42:03.000Z,11
2023-05-16T14:44:43.000Z,12.4
2023-05-16T14:47:32.000Z,9.7
2023-05-16T14:50:12.000Z,10
2023-05-16T14:52:57.000Z,9.6
2023-05-16T14:54:40.000Z,9.2
2023-05-16T14:56:02.000Z,9.1
2023-05-16T14:58:47.000Z,10.7
2023-05-16T15:01:27.000Z,8.4
2023-05-16T15:04:16.000Z,9.4
2023-05-16T15:09:25.000Z,8.5
2023-05-16T15:12:10.000Z,10
2023-05-16T15:14:54.000Z,10.7
2023-05-16T15:17:43.000Z,8.4
2023-05-16T15:20:27.000Z,9.5
2023-05-16T15:22:11.000Z,8.8
2023-05-16T15:23:29.000Z,8.6
2023-05-16T15:26:09.000Z,8.1
2023-05-16T15:28:58.000Z,8.3
2023-05-16T15:31:38.000Z,8.6
2023-05-16T15:34:23.000Z,10
2023-05-16T15:37:11.000Z,8
2023-05-16T15:39:52.000Z,9.5
2023-05-16T15:45:09.000Z,10.3
2023-05-16T15:47:54.000Z,9.3
2023-05-16T15:49:33.000Z,8.4
2023-05-16T15:50:51.000Z,9.2
2023-05-16T15:53:35.000Z,8.5
2023-05-16T15:56:20.000Z,9.7
2023-05-16T15:59:05.000Z,8.2
2023-05-16T16:01:49.000Z,14.3
2023-05-16T16:04:38.000Z,14
2023-05-16T16:07:19.000Z,9.2
2023-05-16T16:10:07.000Z,8.7
2023-05-16T16:12:48.000Z,9.4
2023-05-16T16:15:33.000Z,8.4
2023-05-16T16:18:21.000Z,7.4
2023-05-16T16:21:02.000Z,9.1
2023-05-16T16:23:46.000Z,7.5
2023-05-16T16:26:31.000Z,9
2023-05-16T16:29:16.000Z,10.8
2023-05-16T16:32:00.000Z,8.4
2023-05-16T16:34:45.000Z,10
2023-05-16T16:37:30.000Z,8.4
2023-05-16T16:40:14.000Z,12.7
2023-05-16T16:41:42.000Z,7.6
2023-05-16T16:43:04.000Z,8.8
2023-05-16T16:45:44.000Z,8.1
2023-05-16T16:48:29.000Z,9.7
2023-05-16T16:53:42.000Z,7.8
2023-05-16T16:56:27.000Z,9.3
2023-05-16T16:59:15.000Z,9.2
2023-05-16T17:02:00.000Z,8.8
2023-05-16T17:04:40.000Z,8.3
2023-05-16T17:07:29.000Z,7.3
2023-05-16T17:09:08.000Z,9
2023-05-16T17:10:26.000Z,9.9
2023-05-16T17:13:11.000Z,8.4
2023-05-16T17:15:55.000Z,6.8
2023-05-16T17:18:40.000Z,9.2
2023-05-16T17:21:25.000Z,8.3
2023-05-16T17:24:13.000Z,9.5
2023-05-16T17:29:26.000Z,8.7
2023-05-16T17:32:11.000Z,7.7
2023-05-16T17:34:51.000Z,7.3
2023-05-16T17:36:39.000Z,10.6
2023-05-16T17:37:52.000Z,8.6
2023-05-16T17:40:41.000Z,5.6
2023-05-16T17:43:22.000Z,8.6
2023-05-16T17:46:06.000Z,11.4
2023-05-16T17:48:51.000Z,9.4
2023-05-16T17:51:40.000Z,7.9
2023-05-16T17:54:20.000Z,6.9
2023-05-16T17:57:05.000Z,8.1
2023-05-16T17:59:54.000Z,6.4
2023-05-16T18:04:01.000Z,7.4
2023-05-16T18:05:23.000Z,6.6
2023-05-16T18:08:03.000Z,6.7
2023-05-16T18:10:52.000Z,7.9
2023-05-16T18:13:37.000Z,7.7
2023-05-16T18:16:17.000Z,6.4
2023-05-16T18:19:02.000Z,6.9
2023-05-16T18:21:51.000Z,7.3
2023-05-16T18:24:35.000Z,6
2023-05-16T18:27:16.000Z,7.2
2023-05-16T18:30:01.000Z,6.8
2023-05-16T18:31:27.000Z,6.9
2023-05-16T18:32:49.000Z,7.8
2023-05-16T18:38:02.000Z,6.8
2023-05-16T18:40:47.000Z,7.3
2023-05-16T18:43:27.000Z,8.9
2023-05-16T18:46:16.000Z,7.3
2023-05-16T18:49:01.000Z,11.6
2023-05-16T18:51:41.000Z,8.4
2023-05-16T18:54:26.000Z,6.9
2023-05-16T18:57:15.000Z,7.1
2023-05-16T18:58:54.000Z,6.6
2023-05-16T19:00:12.000Z,5.9
2023-05-16T19:02:56.000Z,7.6
2023-05-16T19:05:41.000Z,8.6
2023-05-16T19:08:25.000Z,6.6
2023-05-16T19:13:38.000Z,6.2
2023-05-16T19:16:27.000Z,5.7
2023-05-16T19:19:08.000Z,10.2
2023-05-16T19:21:56.000Z,11.6
2023-05-16T19:24:41.000Z,6.6
2023-05-16T19:26:20.000Z,7.7
2023-05-16T19:27:38.000Z,6.3
2023-05-16T19:30:23.000Z,11.3
2023-05-16T19:33:07.000Z,8.6
2023-05-16T19:35:56.000Z,7.5
2023-05-16T19:38:40.000Z,7.4
2023-05-16T19:41:21.000Z,7
2023-05-16T19:44:10.000Z,7.5
2023-05-16T19:49:19.000Z,5.9
2023-05-16T19:52:07.000Z,7.1
2023-05-16T19:53:47.000Z,5.4
2023-05-16T19:55:04.000Z,5.5
2023-05-16T19:57:49.000Z,5.4
2023-05-16T20:00:34.000Z,8
2023-05-16T20:03:22.000Z,8.3
2023-05-16T20:06:03.000Z,10.3
2023-05-16T20:08:47.000Z,9.9
2023-05-16T20:11:32.000Z,8.1
2023-05-16T20:14:17.000Z,10
2023-05-16T20:17:05.000Z,6.8
2023-05-16T20:19:46.000Z,6.8
2023-05-16T20:22:31.000Z,6.6
2023-05-16T20:25:19.000Z,6.7
2023-05-16T20:28:00.000Z,9.1
2023-05-16T20:30:45.000Z,7.1
2023-05-16T20:33:33.000Z,6.6
2023-05-16T20:36:14.000Z,8.4
2023-05-16T20:38:58.000Z,8.1
2023-05-16T20:41:47.000Z,10.9
2023-05-16T20:44:32.000Z,10.6
2023-05-16T20:45:59.000Z,5.8
2023-05-16T20:47:13.000Z,6.9
2023-05-16T20:50:02.000Z,6.2
2023-05-16T20:52:42.000Z,9.2
2023-05-16T20:57:55.000Z,6.4
2023-05-16T21:00:40.000Z,8.8
2023-05-16T21:03:25.000Z,7
2023-05-16T21:06:09.000Z,6.8
2023-05-16T21:08:58.000Z,5.4
2023-05-16T21:11:38.000Z,7.9
2023-05-16T21:13:22.000Z,6.8
2023-05-16T21:14:40.000Z,7.6
2023-05-16T21:17:28.000Z,7.3
2023-05-16T21:20:09.000Z,5.4
2023-05-16T21:22:57.000Z,5.4
2023-05-16T21:25:42.000Z,8.4
2023-05-16T21:28:23.000Z,8.3
2023-05-16T21:33:40.000Z,5.8
2023-05-16T21:36:24.000Z,10.6
2023-05-16T21:39:09.000Z,5.6
2023-05-16T21:40:48.000Z,5.2
2023-05-16T21:42:10.000Z,5.3
2023-05-16T21:44:51.000Z,5.8
2023-05-16T21:47:35.000Z,5.3
2023-05-16T21:50:20.000Z,6.2
2023-05-16T21:53:04.000Z,8.3
2023-05-16T21:55:53.000Z,6.2
2023-05-16T21:58:38.000Z,6.6
2023-05-16T22:01:18.000Z,5.8
2023-05-16T22:04:03.000Z,7.6
2023-05-16T22:08:15.000Z,3.8
2023-05-16T22:09:32.000Z,3.8
2023-05-16T22:12:17.000Z,6.2
2023-05-16T22:15:02.000Z,5.4
2023-05-16T22:17:46.000Z,6.1
2023-05-16T22:20:31.000Z,7
2023-05-16T22:23:15.000Z,6.1
2023-05-16T22:26:00.000Z,5.5
2023-05-16T22:28:49.000Z,8
2023-05-16T22:31:29.000Z,10.8
2023-05-16T22:34:14.000Z,5.9
2023-05-16T22:35:41.000Z,5
2023-05-16T22:36:59.000Z,4.5
2023-05-16T22:42:12.000Z,6.5
2023-05-16T22:45:00.000Z,7.1
2023-05-16T22:47:41.000Z,6.3
2023-05-16T22:50:25.000Z,6.2
2023-05-16T22:53:14.000Z,6.7
2023-05-16T22:55:55.000Z,4.1
2023-05-16T22:58:39.000Z,3.7
2023-05-16T23:01:28.000Z,6.3
2023-05-16T23:03:07.000Z,5.7
2023-05-16T23:04:29.000Z,8.3
2023-05-16T23:07:10.000Z,6.2
2023-05-16T23:09:54.000Z,4.5
2023-05-16T23:12:39.000Z,5.2
2023-05-16T23:17:52.000Z,5.4
2023-05-16T23:20:40.000Z,2.7
2023-05-16T23:23:25.000Z,3.6
2023-05-16T23:26:06.000Z,5.6
2023-05-16T23:28:50.000Z,5.5
2023-05-16T23:30:34.000Z,5.8
2023-05-16T23:31:51.000Z,6.2
2023-05-16T23:34:36.000Z,5.6
2023-05-16T23:37:25.000Z,6.4
2023-05-16T23:40:05.000Z,5.4
2023-05-16T23:42:54.000Z,4.1
2023-05-16T23:45:35.000Z,4.8
2023-05-16T23:48:19.000Z,4.9
2023-05-16T23:53:32.000Z,8.4
2023-05-16T23:56:17.000Z,5.1
2023-05-16T23:58:00.000Z,3.9
2023-05-16T23:59:18.000Z,4.7
